Time;durP1;ratioP1;P1;durP2;ratioP2;P2;SDS_P1;SDS_P2;PMS_P1;PMS_P2;Temp;Humidity;BMP_temperature;BMP_pressure;BME280_temperature;BME280_humidity;BME280_pressure;Samples;Min_cycle;Max_cycle;Signal;HPM_P1;HPM_P2
2021/12/19 00:09:04;;;;;;;43.05;20.02;;;;;;;4.99;100.00;102208.47;4857800;29;20132;-89
2021/12/19 00:11:32;;;;;;;45.40;20.95;;;;;;;4.99;100.00;102203.22;4865392;29;20050;-89
2021/12/19 00:14:00;;;;;;;45.35;20.33;;;;;;;5.03;100.00;102209.38;4859617;29;20084;-91
2021/12/19 00:16:27;;;;;;;43.78;20.52;;;;;;;4.99;100.00;102195.34;4863415;29;20080;-89
2021/12/19 00:18:54;;;;;;;41.42;20.45;;;;;;;4.94;100.00;102181.31;4866341;29;20081;-90
2021/12/19 00:21:22;;;;;;;44.20;20.90;;;;;;;4.73;100.00;102140.09;4860516;29;20053;-90
2021/12/19 00:23:54;;;;;;;40.95;19.33;;;;;;;4.83;100.00;102164.66;4855999;29;20057;-91
2021/12/19 00:26:22;;;;;;;41.90;20.10;;;;;;;4.82;100.00;102155.91;4863818;29;20082;-89
2021/12/19 00:28:49;;;;;;;42.08;21.17;;;;;;;5.04;100.00;102184.84;4863816;29;20045;-89
2021/12/19 00:31:16;;;;;;;41.72;19.60;;;;;;;4.68;100.00;102123.47;4858810;29;20073;-89
2021/12/19 00:33:44;;;;;;;41.33;20.23;;;;;;;4.64;100.00;102123.44;4853615;29;20065;-89
2021/12/19 00:36:12;;;;;;;43.65;20.85;;;;;;;4.68;100.00;102128.72;4859505;29;20061;-89
2021/12/19 00:38:39;;;;;;;39.47;18.92;;;;;;;4.61;100.00;102119.03;4859640;29;20046;-89
2021/12/19 00:41:06;;;;;;;39.78;18.52;;;;;;;4.91;100.00;102155.03;4864145;29;20109;-89
2021/12/19 00:43:36;;;;;;;43.17;21.05;;;;;;;5.06;100.00;102186.63;4861607;29;20166;-89
2021/12/19 00:46:07;;;;;;;40.97;19.75;;;;;;;5.08;100.00;102179.63;4859997;29;20084;-89
2021/12/19 00:48:38;;;;;;;39.75;19.75;;;;;;;5.09;100.00;102167.38;4863688;29;20052;-91
2021/12/19 00:51:07;;;;;;;37.28;18.73;;;;;;;4.98;100.00;102137.59;4859069;29;20049;-90
2021/12/19 00:53:34;;;;;;;43.85;20.13;;;;;;;5.19;100.00;102174.44;4865747;29;20159;-88
2021/12/19 00:56:01;;;;;;;38.95;19.30;;;;;;;5.02;100.00;102137.63;4883728;29;20098;-89
2021/12/19 00:58:28;;;;;;;37.47;18.50;;;;;;;5.03;100.00;102128.88;4878542;29;20406;-89
2021/12/19 01:00:55;;;;;;;38.90;19.67;;;;;;;5.13;100.00;102154.28;4864361;29;20485;-89
2021/12/19 01:03:23;;;;;;;39.75;19.60;;;;;;;4.98;100.00;102120.09;4865212;29;20053;-89
2021/12/19 01:05:52;;;;;;;35.38;17.77;;;;;;;5.17;100.00;102157.78;4875985;29;20456;-89
2021/12/19 01:08:20;;;;;;;40.50;19.75;;;;;;;5.02;100.00;102127.13;4871502;29;20049;-89
2021/12/19 01:10:47;;;;;;;40.17;19.33;;;;;;;5.13;100.00;102145.50;4881435;29;20060;-89
2021/12/19 01:13:16;;;;;;;39.22;18.92;;;;;;;5.03;100.00;102128.00;4865505;29;20880;-89
2021/12/19 01:15:43;;;;;;;39.75;19.88;;;;;;;5.07;100.00;102146.34;4864366;29;20794;-89
2021/12/19 01:18:11;;;;;;;38.38;19.23;;;;;;;5.01;100.00;102138.47;4861750;29;20151;-90
2021/12/19 01:20:40;;;;;;;39.45;19.45;;;;;;;5.10;100.00;102150.75;4875033;29;20057;-89
2021/12/19 01:23:07;;;;;;;39.97;17.52;;;;;;;4.89;100.00;102107.78;4858527;29;20136;-89
2021/12/19 01:25:35;;;;;;;42.50;19.13;;;;;;;4.89;100.00;102114.78;4867013;29;20049;-90
2021/12/19 01:28:03;;;;;;;37.65;18.58;;;;;;;5.13;100.00;102153.41;4859617;29;20102;-89
2021/12/19 01:30:31;;;;;;;34.90;18.08;;;;;;;5.16;100.00;102143.78;4865041;29;20057;-88
2021/12/19 01:32:58;;;;;;;34.92;16.88;;;;;;;5.10;100.00;102138.50;4861410;29;20053;-89
2021/12/19 01:35:26;;;;;;;37.00;18.15;;;;;;;5.13;100.00;102135.00;4863313;29;20054;-89
2021/12/19 01:37:55;;;;;;;34.30;16.13;;;;;;;5.13;100.00;102133.25;4862166;29;20058;-89
2021/12/19 01:40:23;;;;;;;34.28;17.52;;;;;;;5.25;100.00;102143.78;4870143;29;20105;-90
2021/12/19 01:42:55;;;;;;;32.10;16.90;;;;;;;5.19;100.00;102125.41;4860648;29;20068;-89
2021/12/19 01:45:31;;;;;;;34.17;17.35;;;;;;;5.29;100.00;102142.06;4872724;29;20061;-91
2021/12/19 01:48:01;;;;;;;31.88;16.75;;;;;;;5.18;100.00;102118.41;4875635;29;20068;-89
2021/12/19 01:50:33;;;;;;;32.90;16.73;;;;;;;5.02;100.00;102073.72;4882628;29;20049;-89
2021/12/19 01:53:05;;;;;;;32.97;17.13;;;;;;;5.41;100.00;102130.69;4888536;29;20037;-90
2021/12/19 01:55:33;;;;;;;31.13;16.48;;;;;;;5.34;100.00;102111.44;4894594;29;20050;-89
2021/12/19 01:58:00;;;;;;;32.28;16.45;;;;;;;5.13;100.00;102078.13;4880355;29;20148;-89
2021/12/19 02:00:35;;;;;;;32.45;16.15;;;;;;;5.20;100.00;102095.63;4884044;29;20029;-88
2021/12/19 02:03:03;;;;;;;32.17;16.73;;;;;;;5.23;100.00;102103.50;4875185;29;20058;-90
2021/12/19 02:05:30;;;;;;;29.75;15.57;;;;;;;5.29;100.00;102103.53;4875832;29;20060;-90
2021/12/19 02:07:59;;;;;;;31.23;16.60;;;;;;;5.41;100.00;102113.19;4876311;29;20084;-89
2021/12/19 02:10:30;;;;;;;27.42;15.05;;;;;;;5.34;100.00;102102.69;4881469;29;20046;-89
2021/12/19 02:12:59;;;;;;;29.20;15.27;;;;;;;5.47;100.00;102115.84;4875867;29;20060;-89
2021/12/19 02:15:29;;;;;;;29.92;15.43;;;;;;;5.36;100.00;102095.66;4866836;29;20557;-89
2021/12/19 02:18:00;;;;;;;27.33;14.43;;;;;;;5.37;100.00;102094.78;4881564;29;20045;-89
2021/12/19 02:20:37;;;;;;;31.50;15.68;;;;;;;5.28;100.00;102078.16;4880671;29;20034;-89
2021/12/19 02:23:04;;;;;;;28.67;16.08;;;;;;;5.42;100.00;102100.94;4876252;29;20041;-89
2021/12/19 02:25:32;;;;;;;28.45;15.52;;;;;;;5.30;100.00;102080.78;4867164;29;20061;-91
2021/12/19 02:28:00;;;;;;;25.45;14.20;;;;;;;5.15;100.00;102051.88;4867525;29;20041;-90
2021/12/19 02:30:27;;;;;;;25.35;14.43;;;;;;;5.35;100.00;102083.41;4864325;29;20053;-89
2021/12/19 02:32:55;;;;;;;26.00;13.75;;;;;;;5.27;100.00;102065.00;4870597;29;20091;-89
2021/12/19 02:35:27;;;;;;;26.55;14.10;;;;;;;5.50;100.00;102109.72;4867435;29;20041;-90
2021/12/19 02:48:56;;;;;;;24.00;13.80;;;;;;;5.53;100.00;102091.28;4865502;29;20068;-90
2021/12/19 02:51:32;;;;;;;25.40;13.50;;;;;;;5.56;100.00;102088.66;4872604;29;20116;-90
2021/12/19 02:54:01;;;;;;;23.83;13.70;;;;;;;5.41;100.00;102060.63;4866323;29;20057;-90
2021/12/19 02:56:28;;;;;;;21.15;13.05;;;;;;;5.40;100.00;102055.38;4875732;29;20061;-90
2021/12/19 02:58:55;;;;;;;23.95;13.68;;;;;;;5.35;100.00;102038.75;4875877;29;20056;-90
2021/12/19 03:01:23;;;;;;;22.35;12.82;;;;;;;5.50;100.00;102063.28;4874066;29;20105;-88
2021/12/19 03:03:50;;;;;;;24.73;14.02;;;;;;;5.60;100.00;102067.66;4862980;29;20053;-90
2021/12/19 03:06:17;;;;;;;17.40;11.23;;;;;;;5.33;100.00;102032.63;4862877;29;20057;-90
2021/12/19 03:08:47;;;;;;;19.20;11.90;;;;;;;5.42;100.00;102043.13;4870488;29;20049;-90
2021/12/19 03:19:40;;;;;;;18.65;11.80;;;;;;;5.33;100.00;101998.47;4877849;29;20091;-89
2021/12/19 03:22:07;;;;;;;18.25;11.73;;;;;;;5.54;100.00;102037.88;4886159;29;20038;-89
2021/12/19 03:24:34;;;;;;;16.67;10.90;;;;;;;5.63;100.00;102058.91;4872348;29;20045;-90
2021/12/19 03:27:01;;;;;;;16.08;10.80;;;;;;;5.70;100.00;102060.63;4877198;29;20053;-88
2021/12/19 03:29:29;;;;;;;16.90;10.88;;;;;;;5.40;100.00;101997.59;4878401;29;20050;-90
2021/12/19 03:31:57;;;;;;;17.15;10.68;;;;;;;5.39;100.00;101995.84;4872393;29;20080;-88
2021/12/19 03:34:24;;;;;;;16.42;11.07;;;;;;;5.63;100.00;102032.63;4866069;29;20077;-89
2021/12/19 03:36:52;;;;;;;16.20;10.77;;;;;;;5.78;99.89;102058.03;4863731;29;20122;-89
2021/12/19 03:39:26;;;;;;;14.70;10.43;;;;;;;5.76;99.32;102047.50;4883487;29;20029;-89
2021/12/19 03:41:56;;;;;;;17.65;10.43;;;;;;;5.58;99.18;102016.84;4891260;29;20038;-90
2021/12/19 03:44:23;;;;;;;14.30;9.95;;;;;;;5.69;99.08;102042.25;4874535;29;20109;-89
2021/12/19 03:46:51;;;;;;;15.23;10.10;;;;;;;5.79;99.14;102059.78;4872741;29;20064;-89
2021/12/19 03:49:19;;;;;;;16.35;10.68;;;;;;;5.67;99.45;102038.75;4869977;29;20097;-89
2021/12/19 03:51:48;;;;;;;17.00;11.05;;;;;;;5.75;98.77;102042.25;4873484;29;20054;-90
2021/12/19 03:54:15;;;;;;;17.27;11.05;;;;;;;5.70;98.78;102029.09;4860331;29;20536;-89
2021/12/19 03:56:42;;;;;;;17.85;11.23;;;;;;;5.80;98.82;102045.75;4869410;29;20060;-90
2021/12/19 03:59:09;;;;;;;16.48;11.15;;;;;;;5.64;98.56;102013.34;4881281;29;20048;-90
2021/12/19 04:01:36;;;;;;;16.75;10.70;;;;;;;5.44;98.37;101978.31;4871688;29;20060;-89
2021/12/19 04:04:03;;;;;;;14.85;10.40;;;;;;;5.76;98.79;102031.72;4874449;29;20117;-89
2021/12/19 04:06:31;;;;;;;16.23;10.48;;;;;;;5.76;98.94;102034.38;4869367;29;20057;-88
2021/12/19 04:08:58;;;;;;;14.20;10.40;;;;;;;5.59;98.83;101999.34;4875159;29;20116;-89
2021/12/19 04:11:25;;;;;;;16.70;11.02;;;;;;;5.82;98.76;102034.38;4879616;29;20061;-89
2021/12/19 04:13:52;;;;;;;16.38;11.40;;;;;;;5.48;98.02;101966.94;4868816;29;20075;-88
2021/12/19 04:16:19;;;;;;;16.95;10.90;;;;;;;5.81;98.13;102013.34;4884996;29;20053;-88
2021/12/19 04:18:46;;;;;;;15.40;9.93;;;;;;;5.79;98.27;102022.97;4871530;29;20065;-89
2021/12/19 04:21:13;;;;;;;15.02;10.55;;;;;;;5.77;98.12;102007.19;4882041;29;20064;-89
2021/12/19 04:23:40;;;;;;;15.80;10.23;;;;;;;5.71;97.82;101993.19;4863287;29;20069;-89
2021/12/19 04:26:07;;;;;;;13.95;10.27;;;;;;;5.81;97.95;102000.19;4871462;29;20076;-89
2021/12/19 04:28:34;;;;;;;14.98;10.77;;;;;;;5.80;97.98;102001.94;4872726;29;20121;-88
2021/12/19 04:31:03;;;;;;;13.00;9.90;;;;;;;5.44;97.49;101939.78;4867881;29;20049;-89
2021/12/19 04:33:35;;;;;;;12.65;9.13;;;;;;;5.69;95.29;101953.75;4872916;29;20327;-89
2021/12/19 04:36:05;;;;;;;12.43;9.63;;;;;;;5.80;94.83;101980.03;4868710;29;20074;-89
2021/12/19 04:44:35;;;;;;;13.65;10.00;;;;;;;5.63;95.81;101980.06;4862878;29;20163;-89
2021/12/19 04:53:03;;;;;;;14.25;9.82;;;;;;;5.53;95.91;101978.31;4871372;29;20045;-89
2021/12/19 05:03:50;;;;;;;14.25;9.57;;;;;;;5.43;96.04;101948.56;4851761;29;20057;-89
2021/12/19 05:14:00;;;;;;;13.02;9.48;;;;;;;5.63;95.27;101970.44;4866862;29;20079;-90
2021/12/19 05:14:54;;;;;;;13.55;9.82;;;;;;;5.64;95.50;101951.16;4885150;29;20222;-88
2021/12/19 05:17:25;;;;;;;15.25;9.55;;;;;;;5.72;95.24;101959.00;4889308;29;20047;-90
2021/12/19 05:20:08;;;;;;;13.95;9.85;;;;;;;5.66;95.23;101943.28;4889502;29;20069;-89
2021/12/19 05:22:43;;;;;;;13.13;9.05;;;;;;;5.64;95.06;101945.03;4894805;29;20033;-90
2021/12/19 05:25:17;;;;;;;13.57;9.82;;;;;;;5.57;94.50;101931.00;4871942;29;20085;-90
2021/12/19 05:27:50;;;;;;;14.48;8.90;;;;;;;5.44;95.17;101929.28;4867518;29;20121;-89
2021/12/19 05:30:18;;;;;;;11.48;8.20;;;;;;;5.46;94.78;101924.03;4878967;29;20056;-89
2021/12/19 05:32:47;;;;;;;10.98;7.97;;;;;;;5.69;94.79;101963.38;4881703;29;20474;-90
2021/12/19 05:35:20;;;;;;;10.93;7.97;;;;;;;5.68;94.22;101962.50;4860301;29;20050;-90
2021/12/19 05:46:05;;;;;;;13.10;7.93;;;;;;;5.55;93.70;101938.03;4868239;29;20049;-89
2021/12/19 05:48:32;;;;;;;11.60;7.68;;;;;;;5.68;93.55;101962.50;4879407;29;20045;-89
2021/12/19 05:51:00;;;;;;;11.07;7.75;;;;;;;5.61;93.54;101947.66;4874028;29;20064;-89
2021/12/19 05:53:27;;;;;;;12.70;8.40;;;;;;;5.62;93.25;101949.41;4871562;29;20045;-89
2021/12/19 05:55:55;;;;;;;11.73;7.82;;;;;;;5.59;93.39;101947.66;4869896;29;20041;-88
2021/12/19 05:58:22;;;;;;;15.70;9.02;;;;;;;5.45;93.45;101920.53;4881663;29;20049;-89
2021/12/19 06:00:49;;;;;;;16.25;9.18;;;;;;;5.44;94.19;101925.78;4875996;29;20120;-89
2021/12/19 06:03:17;;;;;;;14.10;9.18;;;;;;;5.07;94.39;101864.53;4871676;29;20069;-89
2021/12/19 06:05:43;;;;;;;12.32;8.07;;;;;;;5.26;94.24;101906.53;4870633;29;20049;-89
2021/12/19 06:08:10;;;;;;;14.68;9.00;;;;;;;5.36;94.66;101925.78;4874329;29;20049;-89
2021/12/19 06:10:37;;;;;;;15.82;8.80;;;;;;;5.21;95.16;101902.16;4878328;29;20045;-90
2021/12/19 06:13:04;;;;;;;16.08;9.82;;;;;;;5.20;96.14;101917.03;4877900;29;20048;-89
2021/12/19 06:15:31;;;;;;;14.38;9.10;;;;;;;5.25;96.82;101925.81;4868175;29;20057;-89
2021/12/19 06:17:58;;;;;;;15.55;9.48;;;;;;;4.84;97.08;101870.69;4873556;29;20049;-88
2021/12/19 06:20:31;;;;;;;15.63;9.45;;;;;;;5.17;96.75;101930.19;4864898;29;20050;-89
2021/12/19 06:22:59;;;;;;;15.40;9.20;;;;;;;5.23;96.96;101935.44;4872864;29;20041;-91
2021/12/19 06:25:27;;;;;;;18.27;9.88;;;;;;;5.23;97.64;101930.19;4869266;29;20058;-89
2021/12/19 06:27:54;;;;;;;18.08;9.82;;;;;;;5.17;96.96;101914.44;4871126;29;20129;-89
2021/12/19 06:30:22;;;;;;;16.98;9.95;;;;;;;5.23;96.85;101926.66;4872134;29;20085;-88
2021/12/19 06:32:49;;;;;;;16.23;9.73;;;;;;;5.08;97.59;101892.53;4875862;29;20057;-89
2021/12/19 06:35:20;;;;;;;16.63;10.07;;;;;;;5.11;98.15;101901.31;4873593;29;20053;-88
2021/12/19 06:37:50;;;;;;;17.13;9.75;;;;;;;5.14;98.14;101890.81;4879512;29;20046;-87
2021/12/19 06:40:21;;;;;;;18.60;10.38;;;;;;;5.41;98.14;101926.66;4882085;29;20069;-88
2021/12/19 06:42:48;;;;;;;18.20;10.05;;;;;;;5.34;97.29;101892.53;4876492;29;20041;-88
2021/12/19 06:45:17;;;;;;;18.92;10.35;;;;;;;5.22;97.30;101883.78;4874806;29;20057;-90
2021/12/19 06:47:47;;;;;;;20.08;11.05;;;;;;;5.35;97.33;101895.16;4880206;29;20072;-88
2021/12/19 06:50:16;;;;;;;20.70;11.13;;;;;;;5.42;97.35;101906.53;4881445;29;20342;-88
2021/12/19 06:52:47;;;;;;;19.60;11.32;;;;;;;5.28;97.14;101872.41;4880557;29;20059;-88
2021/12/19 06:55:16;;;;;;;19.88;11.07;;;;;;;5.34;97.48;101892.53;4878099;29;20034;-88
2021/12/19 06:57:43;;;;;;;23.80;12.43;;;;;;;5.42;97.85;101912.66;4878513;29;20057;-88
2021/12/19 07:00:14;;;;;;;26.58;13.10;;;;;;;5.33;98.17;101891.66;4869578;29;20049;-88
2021/12/19 07:02:42;;;;;;;27.15;14.00;;;;;;;5.11;99.25;101866.28;4868948;29;22269;-88
2021/12/19 07:05:09;;;;;;;24.20;13.40;;;;;;;5.33;99.05;101901.28;4873807;29;20057;-88
2021/12/19 07:07:36;;;;;;;23.88;12.95;;;;;;;5.26;98.75;101887.28;4888904;29;20057;-88
2021/12/19 07:10:04;;;;;;;26.25;13.43;;;;;;;5.22;98.89;101873.28;4886795;29;20045;-88
2021/12/19 07:12:31;;;;;;;27.38;13.73;;;;;;;5.28;98.59;101878.53;4883360;29;20314;-88
2021/12/19 07:14:59;;;;;;;25.10;13.35;;;;;;;5.43;98.73;101895.13;4880906;29;20041;-89
2021/12/19 07:17:25;;;;;;;25.27;13.35;;;;;;;5.27;98.30;101865.41;4882142;29;20037;-88
2021/12/19 07:19:52;;;;;;;29.25;14.85;;;;;;;5.33;98.58;101865.41;4877179;29;20043;-89
2021/12/19 07:22:19;;;;;;;24.45;13.77;;;;;;;5.42;98.16;101880.25;4868612;29;20065;-90
2021/12/19 07:24:48;;;;;;;27.67;13.80;;;;;;;5.32;98.26;101852.25;4870002;29;20045;-89
2021/12/19 07:27:15;;;;;;;26.95;14.48;;;;;;;5.31;98.50;101850.50;4881835;29;20056;-88
2021/12/19 07:29:42;;;;;;;28.55;14.60;;;;;;;5.36;98.67;101862.75;4866735;29;20554;-89
2021/12/19 07:32:10;;;;;;;28.35;15.23;;;;;;;5.18;98.61;101837.41;4869088;29;20578;-88
2021/12/19 07:34:38;;;;;;;30.60;15.77;;;;;;;5.15;99.79;101845.28;4867821;29;20136;-90
2021/12/19 07:37:06;;;;;;;29.38;15.27;;;;;;;5.27;99.89;101882.03;4871626;29;20153;-89
2021/12/19 07:42:08;;;;;;;32.47;16.67;;;;;;;5.00;100.00;101847.94;4871873;29;20103;-88
2021/12/19 07:44:36;;;;;;;33.08;16.77;;;;;;;5.17;100.00;101884.69;4873578;29;21188;-88
2021/12/19 07:47:06;;;;;;;39.28;17.75;;;;;;;4.85;100.00;101824.31;4862408;29;20598;-88
2021/12/19 07:49:33;;;;;;;32.95;17.17;;;;;;;5.14;100.00;101872.44;4869036;29;20053;-88
2021/12/19 07:52:00;;;;;;;31.70;17.02;;;;;;;5.09;100.00;101866.28;4865807;29;20053;-88
2021/12/19 07:54:27;;;;;;;33.30;17.27;;;;;;;5.08;100.00;101859.28;4880263;29;20486;-88
2021/12/19 07:56:54;;;;;;;35.50;17.83;;;;;;;5.16;100.00;101878.56;4860675;29;20066;-88
2021/12/19 07:59:21;;;;;;;36.97;18.70;;;;;;;5.03;100.00;101850.56;4858603;29;20487;-88
2021/12/19 08:01:50;;;;;;;38.38;18.73;;;;;;;5.14;100.00;101880.31;4868403;29;20505;-88
2021/12/19 08:04:20;;;;;;;35.88;18.15;;;;;;;4.73;100.00;101798.06;4864248;29;20123;-87
2021/12/19 08:06:47;;;;;;;36.72;18.52;;;;;;;5.01;100.00;101860.19;4865914;29;20053;-88
2021/12/19 08:09:23;;;;;;;34.70;18.48;;;;;;;5.15;100.00;101879.44;4865619;29;20096;-88
2021/12/19 08:11:51;;;;;;;35.38;17.95;;;;;;;5.04;100.00;101862.78;4872123;29;20108;-87
2021/12/19 08:14:21;;;;;;;32.67;17.50;;;;;;;5.01;100.00;101844.44;4866954;29;20057;-88
2021/12/19 08:16:48;;;;;;;31.42;17.73;;;;;;;4.92;100.00;101805.94;4863862;29;20056;-88
2021/12/19 08:19:18;;;;;;;31.95;17.55;;;;;;;4.94;100.00;101801.56;4871732;29;20101;-88
2021/12/19 08:21:45;;;;;;;30.63;16.80;;;;;;;5.03;100.00;101811.19;4869144;29;20056;-89
2021/12/19 08:24:15;;;;;;;33.85;17.55;;;;;;;5.13;100.00;101815.53;4864411;29;20143;-90
2021/12/19 08:26:45;;;;;;;33.87;17.30;;;;;;;5.25;100.00;101833.88;4891459;29;20235;-88
2021/12/19 08:29:15;;;;;;;36.25;18.33;;;;;;;5.26;100.00;101842.63;4888386;29;20067;-88
2021/12/19 08:31:44;;;;;;;33.38;17.05;;;;;;;4.90;100.00;101788.44;4890957;29;20061;-88
2021/12/19 08:34:15;;;;;;;33.83;17.65;;;;;;;5.07;100.00;101818.16;4869001;29;20055;-89
2021/12/19 08:36:42;;;;;;;34.53;17.25;;;;;;;5.14;100.00;101835.66;4862465;29;20049;-88
2021/12/19 08:39:11;;;;;;;39.45;18.98;;;;;;;5.08;100.00;101833.03;4873197;29;20041;-88
2021/12/19 08:41:39;;;;;;;38.40;19.35;;;;;;;5.12;100.00;101833.91;4885051;29;20037;-87
2021/12/19 08:44:06;;;;;;;39.03;19.25;;;;;;;5.02;100.00;101814.69;4868201;29;20053;-88
2021/12/19 08:46:35;;;;;;;35.83;18.50;;;;;;;5.04;100.00;101817.28;4863040;29;20088;-87
2021/12/19 08:49:05;;;;;;;36.63;18.83;;;;;;;4.73;100.00;101756.09;4859369;29;20046;-87
2021/12/19 08:51:32;;;;;;;36.92;18.48;;;;;;;5.05;100.00;101803.28;4861340;29;20082;-86
2021/12/19 08:54:01;;;;;;;39.45;18.60;;;;;;;5.17;100.00;101801.53;4868184;29;20053;-86
2021/12/19 08:56:29;;;;;;;38.08;19.00;;;;;;;5.17;100.00;101785.78;4866119;29;20468;-87
2021/12/19 08:58:59;;;;;;;39.13;18.73;;;;;;;5.39;100.00;101814.56;4862191;29;20054;-86
2021/12/19 09:01:28;;;;;;;37.22;18.65;;;;;;;5.20;100.00;101772.59;4863140;29;20149;-86
2021/12/19 09:03:56;;;;;;;38.42;18.10;;;;;;;5.56;100.00;101818.03;4865585;29;20426;-86
2021/12/19 09:06:24;;;;;;;32.95;17.40;;;;;;;5.39;99.84;101773.41;4850824;29;20087;-87
2021/12/19 09:08:51;;;;;;;35.63;17.75;;;;;;;5.62;98.92;101791.72;4870078;29;20117;-86
2021/12/19 09:11:18;;;;;;;35.15;17.83;;;;;;;5.72;98.55;101792.56;4859558;29;20073;-87
2021/12/19 09:13:44;;;;;;;39.88;18.48;;;;;;;5.96;98.52;101811.75;4859048;29;20054;-87
2021/12/19 09:16:11;;;;;;;31.02;16.83;;;;;;;5.91;96.45;101792.50;4858594;29;20063;-87
2021/12/19 09:18:39;;;;;;;36.50;17.52;;;;;;;5.97;95.98;101784.59;4864508;29;20057;-87
2021/12/19 09:21:05;;;;;;;32.38;18.17;;;;;;;6.08;95.24;101802.91;4883122;29;20045;-87
2021/12/19 09:23:33;;;;;;;32.95;17.15;;;;;;;6.10;95.51;101810.78;4866066;29;20053;-88
2021/12/19 09:26:00;;;;;;;34.60;17.75;;;;;;;5.94;95.23;101781.97;4860187;29;20132;-87
2021/12/19 09:28:27;;;;;;;33.38;16.65;;;;;;;5.98;95.21;101767.88;4861409;29;20140;-89
2021/12/19 09:30:54;;;;;;;31.17;17.38;;;;;;;6.15;94.18;101803.72;4871263;29;20106;-89
2021/12/19 09:33:21;;;;;;;32.22;15.85;;;;;;;5.74;94.42;101752.25;4862710;29;20045;-89
2021/12/19 09:35:48;;;;;;;30.10;16.58;;;;;;;5.97;94.65;101805.63;4861227;29;20159;-89
2021/12/19 09:38:15;;;;;;;35.22;17.10;;;;;;;5.84;95.20;101781.97;4860883;29;20063;-89
2021/12/19 09:40:43;;;;;;;37.05;17.80;;;;;;;5.78;95.19;101780.28;4865684;29;20132;-89
2021/12/19 09:43:41;;;;;;;31.95;17.02;;;;;;;5.78;94.85;101780.28;4861366;29;20065;-90
2021/12/19 09:46:14;;;;;;;34.20;16.20;;;;;;;5.49;94.56;101748.00;4855470;29;20057;-91
2021/12/19 09:48:43;;;;;;;27.92;16.20;;;;;;;5.71;94.06;101786.41;4866390;29;20115;-90
2021/12/19 09:51:12;;;;;;;30.60;16.30;;;;;;;5.74;94.10;101782.91;4867482;29;20073;-89
2021/12/19 09:53:41;;;;;;;33.60;16.90;;;;;;;5.69;94.10;101755.75;4863307;29;20049;-88
2021/12/19 09:56:08;;;;;;;34.22;16.58;;;;;;;5.98;93.97;101788.94;4859061;29;20061;-90
2021/12/19 09:58:35;;;;;;;29.40;15.88;;;;;;;5.90;93.14;101751.31;4859731;29;20057;-89
2021/12/19 10:01:10;;;;;;;34.50;18.23;;;;;;;6.08;93.32;101763.47;4853932;29;20053;-92
2021/12/19 10:03:37;;;;;;;32.85;16.80;;;;;;;6.00;93.02;101741.59;4859480;29;20054;-92
2021/12/19 10:06:16;;;;;;;32.95;17.95;;;;;;;6.36;92.18;101769.38;4851811;29;20065;-89
2021/12/19 10:08:46;;;;;;;36.58;17.75;;;;;;;6.14;92.07;101699.44;4855613;29;20494;-90
2021/12/19 10:11:45;;;;;;;33.22;18.88;;;;;;;6.51;91.74;101721.91;4855748;29;20049;-89
2021/12/19 10:14:32;;;;;;;35.65;17.67;;;;;;;6.76;90.01;101751.50;4872924;29;20565;-89
2021/12/19 10:17:02;;;;;;;33.92;17.60;;;;;;;6.83;89.52;101741.78;4850926;29;20160;-89
2021/12/19 10:19:45;;;;;;;31.92;17.50;;;;;;;6.94;88.29;101748.66;4862563;29;20085;-90
2021/12/19 10:22:34;;;;;;;36.97;18.40;;;;;;;7.06;86.72;101745.06;4860073;29;20053;-89
2021/12/19 10:25:07;;;;;;;31.45;15.95;;;;;;;7.08;85.93;101739.78;4864688;29;20077;-90
2021/12/19 10:27:43;;;;;;;30.15;15.85;;;;;;;7.08;86.12;101724.84;4853512;29;20140;-89
2021/12/19 10:30:15;;;;;;;29.35;15.55;;;;;;;7.15;85.72;101723.84;4860972;29;20137;-89
2021/12/19 10:32:57;;;;;;;25.48;14.27;;;;;;;7.24;85.71;101720.25;4864974;29;20053;-89
2021/12/19 10:35:29;;;;;;;28.42;15.15;;;;;;;7.07;84.42;101688.84;4857660;29;20084;-89
2021/12/19 10:37:57;;;;;;;27.15;14.50;;;;;;;7.25;83.61;101712.31;4868045;29;20057;-89
2021/12/19 10:40:25;;;;;;;29.17;15.45;;;;;;;7.17;83.14;101682.56;4851425;29;20060;-89
2021/12/19 10:43:00;;;;;;;28.20;15.52;;;;;;;7.32;84.01;101686.78;4855666;29;20057;-90
2021/12/19 10:45:34;;;;;;;26.45;15.38;;;;;;;7.26;83.20;101665.75;4853568;29;20157;-90
2021/12/19 10:48:27;;;;;;;27.42;14.88;;;;;;;7.40;83.85;101685.75;4864986;29;20501;-90
2021/12/19 10:50:58;;;;;;;29.25;15.60;;;;;;;7.53;82.30;101680.34;4850910;29;20081;-89
2021/12/19 10:53:37;;;;;;;29.40;15.20;;;;;;;7.51;82.12;101676.84;4867840;29;20112;-90
2021/12/19 10:56:14;;;;;;;28.43;14.90;;;;;;;7.41;81.99;101649.75;4853048;29;20046;-90
2021/12/19 10:58:43;;;;;;;27.95;15.07;;;;;;;7.73;81.01;101687.06;4860985;29;20075;-90
2021/12/19 11:01:18;;;;;;;26.42;14.40;;;;;;;7.78;80.84;101675.56;4861003;29;20141;-89
2021/12/19 11:03:46;;;;;;;24.30;13.98;;;;;;;7.77;80.28;101655.38;4854532;29;20618;-90
2021/12/19 11:06:20;;;;;;;31.05;14.93;;;;;;;7.52;80.25;101610.06;4852758;29;20129;-90
2021/12/19 11:08:51;;;;;;;29.50;15.20;;;;;;;7.79;79.82;101635.13;4858749;29;20133;-88
2021/12/19 11:11:41;;;;;;;28.33;15.18;;;;;;;7.88;79.01;101633.19;4850119;29;20399;-88
2021/12/19 11:14:40;;;;;;;27.08;15.57;;;;;;;7.93;79.26;101643.69;4859452;29;20113;-90
2021/12/19 11:17:11;;;;;;;28.05;14.95;;;;;;;7.67;79.93;101630.94;4852839;29;20232;-89
2021/12/19 11:19:39;;;;;;;26.50;14.57;;;;;;;7.42;80.27;101596.13;4855668;29;20049;-89
2021/12/19 11:22:23;;;;;;;28.08;14.88;;;;;;;7.53;80.74;101606.53;4864375;29;20117;-90
2021/12/19 11:25:03;;;;;;;31.38;15.63;;;;;;;7.51;80.94;101588.13;4859896;29;20057;-89
2021/12/19 11:27:32;;;;;;;25.70;13.95;;;;;;;7.59;80.45;101586.22;4851967;29;20081;-89
2021/12/19 11:29:59;;;;;;;26.80;14.25;;;;;;;7.87;79.85;101612.16;4860606;29;20105;-88
2021/12/19 11:32:43;;;;;;;28.60;15.20;;;;;;;7.91;79.84;101598.88;4861554;29;20081;-90
2021/12/19 11:35:26;;;;;;;26.20;14.52;;;;;;;7.79;79.77;101575.34;4861208;29;20140;-89
2021/12/19 11:37:57;;;;;;;;;;;;;;;7.95;80.03;101597.94;4861960;29;20070;-89
2021/12/19 11:40:24;;;;;;;;;;;;;;;7.98;80.05;101589.97;4876749;29;19924;-90
2021/12/19 11:43:01;;;;;;;27.35;14.90;;;;;;;8.07;79.60;101584.53;4864714;29;19939;-88
2021/12/19 11:45:33;;;;;;;26.20;14.05;;;;;;;8.04;79.23;101568.75;4866726;29;20061;-89
2021/12/19 11:50:58;;;;;;;27.20;14.68;;;;;;;8.09;79.25;101553.72;4857265;29;20088;-89
2021/12/19 11:53:41;;;;;;;27.23;15.23;;;;;;;7.95;78.78;101508.25;4858120;29;20053;-88
2021/12/19 11:56:17;;;;;;;25.33;14.13;;;;;;;8.30;78.77;101538.38;4862297;29;20064;-89
2021/12/19 11:58:52;;;;;;;22.67;13.07;;;;;;;8.63;76.63;101550.94;4860952;29;20054;-88
2021/12/19 12:01:29;;;;;;;23.02;13.48;;;;;;;8.74;75.59;101556.88;4861104;29;20053;-89
2021/12/19 12:03:57;;;;;;;21.75;12.70;;;;;;;8.70;75.06;101520.84;4859189;29;20057;-90
2021/12/19 12:06:28;;;;;;;23.17;12.23;;;;;;;8.79;75.22;101512.75;4873223;29;20073;-89
2021/12/19 12:09:11;;;;;;;22.02;12.20;;;;;;;8.97;73.63;101518.53;4857220;29;20355;-90
2021/12/19 12:12:00;;;;;;;22.20;13.25;;;;;;;9.02;73.23;101529.84;4862704;29;20078;-90
2021/12/19 12:14:30;;;;;;;23.05;12.85;;;;;;;9.03;73.31;101527.16;4866152;29;20107;-89
2021/12/19 12:17:01;;;;;;;23.45;12.35;;;;;;;9.26;72.60;101536.34;4859621;29;20061;-90
2021/12/19 12:19:51;;;;;;;22.65;12.85;;;;;;;9.06;72.25;101515.66;4855503;29;20046;-90
2021/12/19 12:25:04;;;;;;;22.67;13.15;;;;;;;8.87;73.95;101531.06;4854981;29;20054;-91
2021/12/19 12:27:42;;;;;;;20.90;12.60;;;;;;;8.71;74.30;101533.16;4869460;29;20199;-91
2021/12/19 12:30:12;;;;;;;21.90;12.20;;;;;;;8.64;75.59;101528.06;4874538;29;20069;-91
2021/12/19 12:32:42;;;;;;;21.95;12.40;;;;;;;8.64;75.04;101515.72;4860016;29;20512;-90
2021/12/19 12:35:11;;;;;;;20.50;12.07;;;;;;;8.75;74.91;101524.28;4864241;29;20333;-90
2021/12/19 12:37:41;;;;;;;23.50;12.88;;;;;;;8.61;75.17;101491.16;4853551;29;20080;-90
2021/12/19 12:40:21;;;;;;;21.50;12.88;;;;;;;8.87;74.34;101519.63;4868730;29;20712;-91